sensor_id;sensor_type;location;lat;lon;timestamp;temperature;humidity
43884;DHT22;29544;52.018;5.810;2022-08-19T00:00:19;24.00;63.30
43884;DHT22;29544;52.018;5.810;2022-08-19T00:02:45;24.00;63.30
43884;DHT22;29544;52.018;5.810;2022-08-19T00:05:13;24.00;63.30
43884;DHT22;29544;52.018;5.810;2022-08-19T00:07:41;24.10;63.30
43884;DHT22;29544;52.018;5.810;2022-08-19T00:10:09;24.00;63.20
43884;DHT22;29544;52.018;5.810;2022-08-19T00:12:35;23.90;63.10
43884;DHT22;29544;52.018;5.810;2022-08-19T00:15:07;24.00;63.20
43884;DHT22;29544;52.018;5.810;2022-08-19T00:17:37;23.90;63.10
43884;DHT22;29544;52.018;5.810;2022-08-19T00:20:03;23.90;63.00
43884;DHT22;29544;52.018;5.810;2022-08-19T00:22:29;23.90;63.00
43884;DHT22;29544;52.018;5.810;2022-08-19T00:24:55;23.90;63.00
43884;DHT22;29544;52.018;5.810;2022-08-19T00:27:20;23.90;63.00
43884;DHT22;29544;52.018;5.810;2022-08-19T00:29:46;23.80;62.90
43884;DHT22;29544;52.018;5.810;2022-08-19T00:32:11;23.90;62.90
43884;DHT22;29544;52.018;5.810;2022-08-19T00:34:37;23.80;62.80
43884;DHT22;29544;52.018;5.810;2022-08-19T00:37:03;23.80;62.80
43884;DHT22;29544;52.018;5.810;2022-08-19T00:39:29;23.80;62.70
43884;DHT22;29544;52.018;5.810;2022-08-19T00:41:55;23.80;62.70
43884;DHT22;29544;52.018;5.810;2022-08-19T00:44:25;23.70;62.50
43884;DHT22;29544;52.018;5.810;2022-08-19T00:46:52;23.80;62.60
43884;DHT22;29544;52.018;5.810;2022-08-19T00:49:20;23.60;62.40
43884;DHT22;29544;52.018;5.810;2022-08-19T00:51:50;23.70;62.40
43884;DHT22;29544;52.018;5.810;2022-08-19T00:54:16;23.70;62.40
43884;DHT22;29544;52.018;5.810;2022-08-19T00:56:42;23.60;62.40
43884;DHT22;29544;52.018;5.810;2022-08-19T00:59:10;23.70;62.50
43884;DHT22;29544;52.018;5.810;2022-08-19T01:01:41;23.70;62.40
43884;DHT22;29544;52.018;5.810;2022-08-19T01:04:07;23.70;62.40
43884;DHT22;29544;52.018;5.810;2022-08-19T01:06:33;23.60;62.20
43884;DHT22;29544;52.018;5.810;2022-08-19T01:09:00;23.60;62.20
43884;DHT22;29544;52.018;5.810;2022-08-19T01:11:30;23.60;62.20
43884;DHT22;29544;52.018;5.810;2022-08-19T01:13:57;23.60;62.20
43884;DHT22;29544;52.018;5.810;2022-08-19T01:16:25;23.60;62.20
43884;DHT22;29544;52.018;5.810;2022-08-19T01:18:52;23.60;62.20
43884;DHT22;29544;52.018;5.810;2022-08-19T01:21:31;23.50;62.10
43884;DHT22;29544;52.018;5.810;2022-08-19T01:23:58;23.50;62.10
43884;DHT22;29544;52.018;5.810;2022-08-19T01:26:25;23.50;62.00
43884;DHT22;29544;52.018;5.810;2022-08-19T01:28:57;23.40;62.10
43884;DHT22;29544;52.018;5.810;2022-08-19T01:31:26;23.50;62.00
43884;DHT22;29544;52.018;5.810;2022-08-19T01:33:56;23.50;62.00
43884;DHT22;29544;52.018;5.810;2022-08-19T01:36:29;23.50;62.10
43884;DHT22;29544;52.018;5.810;2022-08-19T01:38:56;23.50;61.90
43884;DHT22;29544;52.018;5.810;2022-08-19T01:41:22;23.40;61.90
43884;DHT22;29544;52.018;5.810;2022-08-19T01:43:49;23.60;62.00
43884;DHT22;29544;52.018;5.810;2022-08-19T01:46:15;23.50;61.90
43884;DHT22;29544;52.018;5.810;2022-08-19T01:48:42;23.40;61.80
43884;DHT22;29544;52.018;5.810;2022-08-19T01:51:09;23.40;61.80
43884;DHT22;29544;52.018;5.810;2022-08-19T01:53:35;23.30;61.80
43884;DHT22;29544;52.018;5.810;2022-08-19T01:56:01;23.30;61.70
43884;DHT22;29544;52.018;5.810;2022-08-19T01:58:40;23.30;61.80
43884;DHT22;29544;52.018;5.810;2022-08-19T02:01:07;23.30;61.70
43884;DHT22;29544;52.018;5.810;2022-08-19T02:03:33;23.30;61.60
43884;DHT22;29544;52.018;5.810;2022-08-19T02:06:01;23.30;61.60
43884;DHT22;29544;52.018;5.810;2022-08-19T02:08:29;23.30;61.60
43884;DHT22;29544;52.018;5.810;2022-08-19T02:10:56;23.30;61.70
43884;DHT22;29544;52.018;5.810;2022-08-19T02:13:22;23.30;61.60
43884;DHT22;29544;52.018;5.810;2022-08-19T02:15:48;23.20;61.60
43884;DHT22;29544;52.018;5.810;2022-08-19T02:18:13;23.30;61.60
43884;DHT22;29544;52.018;5.810;2022-08-19T02:20:41;23.20;61.50
43884;DHT22;29544;52.018;5.810;2022-08-19T02:23:09;23.20;61.50
43884;DHT22;29544;52.018;5.810;2022-08-19T02:25:35;23.20;61.40
43884;DHT22;29544;52.018;5.810;2022-08-19T02:28:01;23.20;61.50
43884;DHT22;29544;52.018;5.810;2022-08-19T02:30:27;23.20;61.50
43884;DHT22;29544;52.018;5.810;2022-08-19T02:32:53;23.20;61.40
43884;DHT22;29544;52.018;5.810;2022-08-19T02:35:19;23.10;61.40
43884;DHT22;29544;52.018;5.810;2022-08-19T02:37:45;23.10;61.50
43884;DHT22;29544;52.018;5.810;2022-08-19T02:40:30;23.10;61.40
43884;DHT22;29544;52.018;5.810;2022-08-19T02:43:00;23.20;61.50
43884;DHT22;29544;52.018;5.810;2022-08-19T02:45:26;23.20;61.50
43884;DHT22;29544;52.018;5.810;2022-08-19T02:47:52;23.10;61.40
43884;DHT22;29544;52.018;5.810;2022-08-19T02:50:18;23.10;61.50
43884;DHT22;29544;52.018;5.810;2022-08-19T02:52:43;23.10;61.40
43884;DHT22;29544;52.018;5.810;2022-08-19T02:55:10;23.10;61.40
43884;DHT22;29544;52.018;5.810;2022-08-19T02:57:35;23.10;61.50
43884;DHT22;29544;52.018;5.810;2022-08-19T03:00:05;23.10;61.50
43884;DHT22;29544;52.018;5.810;2022-08-19T03:02:30;23.10;61.40
43884;DHT22;29544;52.018;5.810;2022-08-19T03:04:56;23.00;61.40
43884;DHT22;29544;52.018;5.810;2022-08-19T03:07:21;23.00;61.50
43884;DHT22;29544;52.018;5.810;2022-08-19T03:09:47;23.00;61.50
43884;DHT22;29544;52.018;5.810;2022-08-19T03:12:12;23.00;61.40
43884;DHT22;29544;52.018;5.810;2022-08-19T03:14:38;22.90;61.30
43884;DHT22;29544;52.018;5.810;2022-08-19T03:17:04;23.00;61.50
43884;DHT22;29544;52.018;5.810;2022-08-19T03:19:31;23.00;61.40
43884;DHT22;29544;52.018;5.810;2022-08-19T03:21:56;23.00;61.40
43884;DHT22;29544;52.018;5.810;2022-08-19T03:24:23;23.00;61.40
43884;DHT22;29544;52.018;5.810;2022-08-19T03:26:51;22.90;61.30
43884;DHT22;29544;52.018;5.810;2022-08-19T03:29:18;22.90;61.30
43884;DHT22;29544;52.018;5.810;2022-08-19T03:31:45;22.90;61.40
43884;DHT22;29544;52.018;5.810;2022-08-19T03:34:16;22.80;61.20
43884;DHT22;29544;52.018;5.810;2022-08-19T03:36:43;22.90;61.40
43884;DHT22;29544;52.018;5.810;2022-08-19T03:39:10;22.90;61.30
43884;DHT22;29544;52.018;5.810;2022-08-19T03:41:37;22.80;61.30
43884;DHT22;29544;52.018;5.810;2022-08-19T03:44:03;22.90;61.40
43884;DHT22;29544;52.018;5.810;2022-08-19T03:46:31;22.80;61.30
43884;DHT22;29544;52.018;5.810;2022-08-19T03:48:59;23.00;61.50
43884;DHT22;29544;52.018;5.810;2022-08-19T03:51:32;22.80;61.30
43884;DHT22;29544;52.018;5.810;2022-08-19T03:53:59;22.80;61.20
43884;DHT22;29544;52.018;5.810;2022-08-19T03:56:26;22.80;61.30
43884;DHT22;29544;52.018;5.810;2022-08-19T03:58:54;22.80;61.30
43884;DHT22;29544;52.018;5.810;2022-08-19T04:01:21;22.80;61.40
43884;DHT22;29544;52.018;5.810;2022-08-19T04:03:48;22.80;61.30
43884;DHT22;29544;52.018;5.810;2022-08-19T04:08:40;22.70;61.20
43884;DHT22;29544;52.018;5.810;2022-08-19T04:11:08;22.70;61.20
43884;DHT22;29544;52.018;5.810;2022-08-19T04:13:35;22.70;61.20
43884;DHT22;29544;52.018;5.810;2022-08-19T04:16:00;22.70;61.30
43884;DHT22;29544;52.018;5.810;2022-08-19T04:18:26;22.70;61.20
43884;DHT22;29544;52.018;5.810;2022-08-19T04:20:51;22.80;61.30
43884;DHT22;29544;52.018;5.810;2022-08-19T04:23:17;22.60;61.10
43884;DHT22;29544;52.018;5.810;2022-08-19T04:25:44;22.70;61.90
43884;DHT22;29544;52.018;5.810;2022-08-19T04:28:12;22.70;61.20
43884;DHT22;29544;52.018;5.810;2022-08-19T04:30:44;22.70;61.20
43884;DHT22;29544;52.018;5.810;2022-08-19T04:33:11;22.70;61.20
43884;DHT22;29544;52.018;5.810;2022-08-19T04:35:38;22.70;61.20
43884;DHT22;29544;52.018;5.810;2022-08-19T04:38:05;22.60;61.10
43884;DHT22;29544;52.018;5.810;2022-08-19T04:40:31;22.60;61.10
43884;DHT22;29544;52.018;5.810;2022-08-19T04:43:29;22.60;61.10
43884;DHT22;29544;52.018;5.810;2022-08-19T04:45:56;22.60;61.20
43884;DHT22;29544;52.018;5.810;2022-08-19T04:48:21;22.60;61.20
43884;DHT22;29544;52.018;5.810;2022-08-19T04:50:56;22.60;61.10
43884;DHT22;29544;52.018;5.810;2022-08-19T04:53:34;22.60;61.10
43884;DHT22;29544;52.018;5.810;2022-08-19T04:56:08;22.60;61.20
43884;DHT22;29544;52.018;5.810;2022-08-19T04:58:35;22.50;61.10
43884;DHT22;29544;52.018;5.810;2022-08-19T05:01:00;22.60;61.10
43884;DHT22;29544;52.018;5.810;2022-08-19T05:03:26;22.60;61.10
43884;DHT22;29544;52.018;5.810;2022-08-19T05:05:52;22.50;61.10
43884;DHT22;29544;52.018;5.810;2022-08-19T05:08:20;22.50;61.10
43884;DHT22;29544;52.018;5.810;2022-08-19T05:10:48;22.40;61.00
43884;DHT22;29544;52.018;5.810;2022-08-19T05:13:15;22.50;61.00
43884;DHT22;29544;52.018;5.810;2022-08-19T05:15:41;22.50;61.00
43884;DHT22;29544;52.018;5.810;2022-08-19T05:18:07;22.50;60.90
43884;DHT22;29544;52.018;5.810;2022-08-19T05:20:51;22.50;61.00
43884;DHT22;29544;52.018;5.810;2022-08-19T05:23:35;22.50;61.00
43884;DHT22;29544;52.018;5.810;2022-08-19T05:26:00;22.50;61.00
43884;DHT22;29544;52.018;5.810;2022-08-19T05:28:26;22.50;60.90
43884;DHT22;29544;52.018;5.810;2022-08-19T05:30:52;22.60;61.10
43884;DHT22;29544;52.018;5.810;2022-08-19T05:33:21;22.40;61.00
43884;DHT22;29544;52.018;5.810;2022-08-19T05:35:47;22.40;61.00
43884;DHT22;29544;52.018;5.810;2022-08-19T05:38:15;22.40;61.00
43884;DHT22;29544;52.018;5.810;2022-08-19T05:40:41;22.30;60.90
43884;DHT22;29544;52.018;5.810;2022-08-19T05:43:11;22.40;61.00
43884;DHT22;29544;52.018;5.810;2022-08-19T05:45:41;22.40;61.00
43884;DHT22;29544;52.018;5.810;2022-08-19T05:48:08;22.40;61.00
43884;DHT22;29544;52.018;5.810;2022-08-19T05:50:37;22.40;61.00
43884;DHT22;29544;52.018;5.810;2022-08-19T05:53:03;22.40;61.10
43884;DHT22;29544;52.018;5.810;2022-08-19T05:55:29;22.40;61.10
43884;DHT22;29544;52.018;5.810;2022-08-19T05:57:54;22.40;61.10
43884;DHT22;29544;52.018;5.810;2022-08-19T06:00:20;22.30;61.10
43884;DHT22;29544;52.018;5.810;2022-08-19T06:02:46;22.40;61.20
43884;DHT22;29544;52.018;5.810;2022-08-19T06:05:11;22.40;61.20
43884;DHT22;29544;52.018;5.810;2022-08-19T06:07:38;22.40;61.20
43884;DHT22;29544;52.018;5.810;2022-08-19T06:10:06;22.40;61.30
43884;DHT22;29544;52.018;5.810;2022-08-19T06:12:33;22.40;61.30
43884;DHT22;29544;52.018;5.810;2022-08-19T06:15:01;22.30;61.30
43884;DHT22;29544;52.018;5.810;2022-08-19T06:17:27;22.40;61.40
43884;DHT22;29544;52.018;5.810;2022-08-19T06:19:55;22.40;61.50
43884;DHT22;29544;52.018;5.810;2022-08-19T06:22:21;22.40;61.60
43884;DHT22;29544;52.018;5.810;2022-08-19T06:24:46;22.40;61.70
43884;DHT22;29544;52.018;5.810;2022-08-19T06:27:12;22.40;61.70
43884;DHT22;29544;52.018;5.810;2022-08-19T06:29:38;22.40;61.90
43884;DHT22;29544;52.018;5.810;2022-08-19T06:32:04;22.40;62.00
43884;DHT22;29544;52.018;5.810;2022-08-19T06:34:32;22.40;62.20
43884;DHT22;29544;52.018;5.810;2022-08-19T06:36:59;22.30;62.40
43884;DHT22;29544;52.018;5.810;2022-08-19T06:39:29;22.40;62.40
43884;DHT22;29544;52.018;5.810;2022-08-19T06:41:57;22.40;62.60
43884;DHT22;29544;52.018;5.810;2022-08-19T06:44:27;22.30;62.60
43884;DHT22;29544;52.018;5.810;2022-08-19T06:46:54;22.30;62.90
43884;DHT22;29544;52.018;5.810;2022-08-19T06:49:21;22.40;63.00
43884;DHT22;29544;52.018;5.810;2022-08-19T06:51:49;22.40;63.30
43884;DHT22;29544;52.018;5.810;2022-08-19T06:54:18;22.30;63.30
43884;DHT22;29544;52.018;5.810;2022-08-19T06:56:44;22.30;63.30
43884;DHT22;29544;52.018;5.810;2022-08-19T07:02:17;22.40;63.50
43884;DHT22;29544;52.018;5.810;2022-08-19T07:04:43;22.40;63.70
43884;DHT22;29544;52.018;5.810;2022-08-19T07:07:11;22.40;63.70
43884;DHT22;29544;52.018;5.810;2022-08-19T07:09:39;22.40;63.80
43884;DHT22;29544;52.018;5.810;2022-08-19T07:12:07;22.50;64.20
43884;DHT22;29544;52.018;5.810;2022-08-19T07:14:34;22.40;64.20
43884;DHT22;29544;52.018;5.810;2022-08-19T07:17:04;22.40;64.40
43884;DHT22;29544;52.018;5.810;2022-08-19T07:19:30;22.40;64.30
43884;DHT22;29544;52.018;5.810;2022-08-19T07:21:57;22.40;64.30
43884;DHT22;29544;52.018;5.810;2022-08-19T07:24:26;22.40;64.60
43884;DHT22;29544;52.018;5.810;2022-08-19T07:26:55;22.40;64.80
43884;DHT22;29544;52.018;5.810;2022-08-19T07:29:23;22.40;65.00
43884;DHT22;29544;52.018;5.810;2022-08-19T07:31:52;22.40;65.00
43884;DHT22;29544;52.018;5.810;2022-08-19T07:34:18;22.40;64.90
43884;DHT22;29544;52.018;5.810;2022-08-19T07:36:44;22.40;65.20
43884;DHT22;29544;52.018;5.810;2022-08-19T07:39:11;22.40;65.20
43884;DHT22;29544;52.018;5.810;2022-08-19T07:41:37;22.40;65.10
43884;DHT22;29544;52.018;5.810;2022-08-19T07:44:04;22.50;65.40
43884;DHT22;29544;52.018;5.810;2022-08-19T07:46:35;22.40;65.50
43884;DHT22;29544;52.018;5.810;2022-08-19T07:49:02;22.40;66.00
43884;DHT22;29544;52.018;5.810;2022-08-19T07:51:28;22.50;65.60
43884;DHT22;29544;52.018;5.810;2022-08-19T07:53:54;22.50;65.60
43884;DHT22;29544;52.018;5.810;2022-08-19T07:56:20;22.50;65.80
43884;DHT22;29544;52.018;5.810;2022-08-19T07:58:48;22.40;65.80
43884;DHT22;29544;52.018;5.810;2022-08-19T08:01:18;22.50;65.90
43884;DHT22;29544;52.018;5.810;2022-08-19T08:03:45;22.50;66.00
43884;DHT22;29544;52.018;5.810;2022-08-19T08:06:29;22.40;65.90
43884;DHT22;29544;52.018;5.810;2022-08-19T08:09:15;22.50;66.00
43884;DHT22;29544;52.018;5.810;2022-08-19T08:12:01;22.50;66.00
43884;DHT22;29544;52.018;5.810;2022-08-19T08:14:32;22.50;66.30
43884;DHT22;29544;52.018;5.810;2022-08-19T08:16:58;22.40;66.00
43884;DHT22;29544;52.018;5.810;2022-08-19T08:19:25;22.50;66.20
43884;DHT22;29544;52.018;5.810;2022-08-19T08:21:55;22.50;66.20
43884;DHT22;29544;52.018;5.810;2022-08-19T08:24:21;22.50;66.30
43884;DHT22;29544;52.018;5.810;2022-08-19T08:26:47;22.50;66.40
43884;DHT22;29544;52.018;5.810;2022-08-19T08:29:14;22.50;66.40
43884;DHT22;29544;52.018;5.810;2022-08-19T08:31:41;22.50;66.40
43884;DHT22;29544;52.018;5.810;2022-08-19T08:34:08;22.50;66.40
43884;DHT22;29544;52.018;5.810;2022-08-19T08:36:43;22.50;66.50
43884;DHT22;29544;52.018;5.810;2022-08-19T08:39:15;22.40;66.50
43884;DHT22;29544;52.018;5.810;2022-08-19T08:41:58;22.50;66.50
43884;DHT22;29544;52.018;5.810;2022-08-19T08:45:13;22.50;66.60
43884;DHT22;29544;52.018;5.810;2022-08-19T08:47:43;22.50;66.60
43884;DHT22;29544;52.018;5.810;2022-08-19T08:50:16;22.50;66.60
43884;DHT22;29544;52.018;5.810;2022-08-19T08:52:50;22.60;66.70
43884;DHT22;29544;52.018;5.810;2022-08-19T08:55:20;22.60;66.70
43884;DHT22;29544;52.018;5.810;2022-08-19T08:57:52;22.50;66.70
43884;DHT22;29544;52.018;5.810;2022-08-19T09:00:33;22.60;66.70
43884;DHT22;29544;52.018;5.810;2022-08-19T09:02:59;22.60;66.80
43884;DHT22;29544;52.018;5.810;2022-08-19T09:09:00;22.60;66.90
43884;DHT22;29544;52.018;5.810;2022-08-19T09:11:47;22.60;67.20
43884;DHT22;29544;52.018;5.810;2022-08-19T09:16:45;22.70;67.40
43884;DHT22;29544;52.018;5.810;2022-08-19T09:19:11;22.70;67.50
43884;DHT22;29544;52.018;5.810;2022-08-19T09:21:37;22.80;67.70
43884;DHT22;29544;52.018;5.810;2022-08-19T09:24:04;22.70;67.70
43884;DHT22;29544;52.018;5.810;2022-08-19T09:26:31;22.70;67.70
43884;DHT22;29544;52.018;5.810;2022-08-19T09:28:58;22.70;67.60
43884;DHT22;29544;52.018;5.810;2022-08-19T09:31:26;22.90;67.70
43884;DHT22;29544;52.018;5.810;2022-08-19T09:33:53;22.80;67.60
43884;DHT22;29544;52.018;5.810;2022-08-19T09:36:22;22.80;67.60
43884;DHT22;29544;52.018;5.810;2022-08-19T09:38:49;22.80;67.70
43884;DHT22;29544;52.018;5.810;2022-08-19T09:41:20;22.80;67.60
43884;DHT22;29544;52.018;5.810;2022-08-19T09:43:50;22.80;67.60
43884;DHT22;29544;52.018;5.810;2022-08-19T09:46:18;22.80;67.60
43884;DHT22;29544;52.018;5.810;2022-08-19T09:48:45;22.80;67.70
43884;DHT22;29544;52.018;5.810;2022-08-19T09:51:16;22.80;67.70
43884;DHT22;29544;52.018;5.810;2022-08-19T09:53:44;22.80;67.60
43884;DHT22;29544;52.018;5.810;2022-08-19T09:56:10;22.80;67.80
43884;DHT22;29544;52.018;5.810;2022-08-19T09:58:36;22.90;67.70
43884;DHT22;29544;52.018;5.810;2022-08-19T10:01:03;22.90;67.70
43884;DHT22;29544;52.018;5.810;2022-08-19T10:03:31;22.90;67.70
43884;DHT22;29544;52.018;5.810;2022-08-19T10:06:02;22.90;67.60
43884;DHT22;29544;52.018;5.810;2022-08-19T10:08:31;22.90;67.50
43884;DHT22;29544;52.018;5.810;2022-08-19T10:10:59;22.90;67.50
43884;DHT22;29544;52.018;5.810;2022-08-19T10:13:28;23.00;67.60
43884;DHT22;29544;52.018;5.810;2022-08-19T10:16:06;23.00;67.60
43884;DHT22;29544;52.018;5.810;2022-08-19T10:18:33;23.00;67.60
43884;DHT22;29544;52.018;5.810;2022-08-19T10:21:13;23.00;67.40
43884;DHT22;29544;52.018;5.810;2022-08-19T10:23:42;23.00;67.30
43884;DHT22;29544;52.018;5.810;2022-08-19T10:26:18;23.10;67.50
43884;DHT22;29544;52.018;5.810;2022-08-19T10:28:51;22.90;67.30
43884;DHT22;29544;52.018;5.810;2022-08-19T10:31:20;23.10;67.50
43884;DHT22;29544;52.018;5.810;2022-08-19T10:33:47;23.10;67.50
43884;DHT22;29544;52.018;5.810;2022-08-19T10:36:17;23.10;67.40
43884;DHT22;29544;52.018;5.810;2022-08-19T10:38:46;23.20;67.30
43884;DHT22;29544;52.018;5.810;2022-08-19T10:41:21;23.20;67.20
43884;DHT22;29544;52.018;5.810;2022-08-19T10:43:51;23.20;67.10
43884;DHT22;29544;52.018;5.810;2022-08-19T10:46:17;23.30;67.20
43884;DHT22;29544;52.018;5.810;2022-08-19T10:48:44;23.20;67.10
43884;DHT22;29544;52.018;5.810;2022-08-19T10:51:11;23.30;67.20
43884;DHT22;29544;52.018;5.810;2022-08-19T10:53:56;23.20;67.20
43884;DHT22;29544;52.018;5.810;2022-08-19T10:56:22;23.30;67.20
43884;DHT22;29544;52.018;5.810;2022-08-19T10:59:07;23.50;67.30
43884;DHT22;29544;52.018;5.810;2022-08-19T11:01:33;23.30;67.20
43884;DHT22;29544;52.018;5.810;2022-08-19T11:04:01;23.40;67.20
43884;DHT22;29544;52.018;5.810;2022-08-19T11:06:27;23.50;67.20
43884;DHT22;29544;52.018;5.810;2022-08-19T11:08:56;23.40;67.00
43884;DHT22;29544;52.018;5.810;2022-08-19T11:11:22;23.40;67.10
43884;DHT22;29544;52.018;5.810;2022-08-19T11:13:48;23.50;67.10
43884;DHT22;29544;52.018;5.810;2022-08-19T11:16:33;23.50;67.20
43884;DHT22;29544;52.018;5.810;2022-08-19T11:18:59;23.50;67.00
43884;DHT22;29544;52.018;5.810;2022-08-19T11:21:37;23.50;67.10
43884;DHT22;29544;52.018;5.810;2022-08-19T11:24:06;23.60;67.10
43884;DHT22;29544;52.018;5.810;2022-08-19T11:26:33;23.60;67.00
43884;DHT22;29544;52.018;5.810;2022-08-19T11:29:00;23.80;67.10
43884;DHT22;29544;52.018;5.810;2022-08-19T11:31:29;23.70;67.00
43884;DHT22;29544;52.018;5.810;2022-08-19T11:33:57;23.70;66.90
43884;DHT22;29544;52.018;5.810;2022-08-19T11:36:25;23.70;66.90
43884;DHT22;29544;52.018;5.810;2022-08-19T11:38:51;23.80;66.80
43884;DHT22;29544;52.018;5.810;2022-08-19T11:41:18;23.80;66.90
43884;DHT22;29544;52.018;5.810;2022-08-19T11:43:44;23.80;66.80
43884;DHT22;29544;52.018;5.810;2022-08-19T11:46:12;23.90;66.80
43884;DHT22;29544;52.018;5.810;2022-08-19T11:48:38;23.90;66.50
43884;DHT22;29544;52.018;5.810;2022-08-19T11:51:06;23.90;66.20
43884;DHT22;29544;52.018;5.810;2022-08-19T11:53:33;23.90;66.20
43884;DHT22;29544;52.018;5.810;2022-08-19T11:55:59;24.00;66.20
43884;DHT22;29544;52.018;5.810;2022-08-19T11:58:25;24.00;66.40
43884;DHT22;29544;52.018;5.810;2022-08-19T12:00:51;24.10;66.20
43884;DHT22;29544;52.018;5.810;2022-08-19T12:03:17;24.00;66.60
43884;DHT22;29544;52.018;5.810;2022-08-19T12:05:44;24.00;66.10
43884;DHT22;29544;52.018;5.810;2022-08-19T12:08:10;24.10;66.80
43884;DHT22;29544;52.018;5.810;2022-08-19T12:10:37;24.10;66.00
43884;DHT22;29544;52.018;5.810;2022-08-19T12:13:02;24.10;65.90
43884;DHT22;29544;52.018;5.810;2022-08-19T12:15:28;24.10;65.80
43884;DHT22;29544;52.018;5.810;2022-08-19T12:17:54;24.20;65.60
43884;DHT22;29544;52.018;5.810;2022-08-19T12:20:22;24.20;65.90
43884;DHT22;29544;52.018;5.810;2022-08-19T12:22:48;24.40;65.70
43884;DHT22;29544;52.018;5.810;2022-08-19T12:25:14;24.30;65.40
43884;DHT22;29544;52.018;5.810;2022-08-19T12:27:40;24.30;65.40
43884;DHT22;29544;52.018;5.810;2022-08-19T12:30:07;24.30;65.50
43884;DHT22;29544;52.018;5.810;2022-08-19T12:32:34;24.40;65.60
43884;DHT22;29544;52.018;5.810;2022-08-19T12:34:59;24.40;65.50
43884;DHT22;29544;52.018;5.810;2022-08-19T12:37:25;24.40;65.50
43884;DHT22;29544;52.018;5.810;2022-08-19T12:39:50;24.50;65.50
43884;DHT22;29544;52.018;5.810;2022-08-19T12:42:16;24.50;65.30
43884;DHT22;29544;52.018;5.810;2022-08-19T12:44:44;24.60;65.40
43884;DHT22;29544;52.018;5.810;2022-08-19T12:47:11;24.60;65.20
43884;DHT22;29544;52.018;5.810;2022-08-19T12:49:39;24.70;65.10
43884;DHT22;29544;52.018;5.810;2022-08-19T12:52:06;24.70;65.00
43884;DHT22;29544;52.018;5.810;2022-08-19T12:54:34;24.80;65.10
43884;DHT22;29544;52.018;5.810;2022-08-19T12:56:59;24.70;65.00
43884;DHT22;29544;52.018;5.810;2022-08-19T12:59:26;24.80;65.00
43884;DHT22;29544;52.018;5.810;2022-08-19T13:01:52;24.80;64.90
43884;DHT22;29544;52.018;5.810;2022-08-19T13:04:18;25.00;65.00
43884;DHT22;29544;52.018;5.810;2022-08-19T13:06:44;24.90;65.10
43884;DHT22;29544;52.018;5.810;2022-08-19T13:09:10;25.10;65.00
43884;DHT22;29544;52.018;5.810;2022-08-19T13:11:36;25.00;64.70
43884;DHT22;29544;52.018;5.810;2022-08-19T13:14:03;25.00;64.80
43884;DHT22;29544;52.018;5.810;2022-08-19T13:16:29;25.00;64.50
43884;DHT22;29544;52.018;5.810;2022-08-19T13:18:55;25.10;64.60
43884;DHT22;29544;52.018;5.810;2022-08-19T13:21:23;25.10;64.20
43884;DHT22;29544;52.018;5.810;2022-08-19T13:23:49;25.20;64.50
43884;DHT22;29544;52.018;5.810;2022-08-19T13:26:15;25.20;64.30
43884;DHT22;29544;52.018;5.810;2022-08-19T13:28:41;25.20;64.10
43884;DHT22;29544;52.018;5.810;2022-08-19T13:31:28;25.20;64.00
43884;DHT22;29544;52.018;5.810;2022-08-19T13:34:13;25.20;64.00
43884;DHT22;29544;52.018;5.810;2022-08-19T13:36:39;25.20;63.90
43884;DHT22;29544;52.018;5.810;2022-08-19T13:39:06;25.20;63.90
43884;DHT22;29544;52.018;5.810;2022-08-19T13:41:36;25.20;63.90
43884;DHT22;29544;52.018;5.810;2022-08-19T13:44:03;25.20;63.70
43884;DHT22;29544;52.018;5.810;2022-08-19T13:46:29;25.30;63.70
43884;DHT22;29544;52.018;5.810;2022-08-19T13:48:55;25.30;63.70
43884;DHT22;29544;52.018;5.810;2022-08-19T13:51:22;25.30;63.80
43884;DHT22;29544;52.018;5.810;2022-08-19T13:53:48;25.40;63.70
43884;DHT22;29544;52.018;5.810;2022-08-19T13:56:16;25.30;63.50
43884;DHT22;29544;52.018;5.810;2022-08-19T13:58:42;25.30;63.60
43884;DHT22;29544;52.018;5.810;2022-08-19T14:01:09;25.40;63.70
43884;DHT22;29544;52.018;5.810;2022-08-19T14:03:35;25.30;63.60
43884;DHT22;29544;52.018;5.810;2022-08-19T14:06:01;25.30;63.70
43884;DHT22;29544;52.018;5.810;2022-08-19T14:08:27;25.30;63.70
43884;DHT22;29544;52.018;5.810;2022-08-19T14:10:56;25.20;63.70
43884;DHT22;29544;52.018;5.810;2022-08-19T14:13:22;25.30;64.10
43884;DHT22;29544;52.018;5.810;2022-08-19T14:15:48;25.30;64.30
43884;DHT22;29544;52.018;5.810;2022-08-19T14:18:16;25.30;64.50
43884;DHT22;29544;52.018;5.810;2022-08-19T14:20:42;25.20;64.40
43884;DHT22;29544;52.018;5.810;2022-08-19T14:23:08;25.20;64.40
43884;DHT22;29544;52.018;5.810;2022-08-19T14:25:34;25.20;64.50
43884;DHT22;29544;52.018;5.810;2022-08-19T14:28:00;25.20;64.70
43884;DHT22;29544;52.018;5.810;2022-08-19T14:30:36;25.20;64.70
43884;DHT22;29544;52.018;5.810;2022-08-19T14:33:03;25.20;64.80
43884;DHT22;29544;52.018;5.810;2022-08-19T14:35:31;25.20;64.80
43884;DHT22;29544;52.018;5.810;2022-08-19T14:38:00;25.20;64.90
43884;DHT22;29544;52.018;5.810;2022-08-19T14:40:27;25.20;64.70
43884;DHT22;29544;52.018;5.810;2022-08-19T14:42:59;25.10;64.70
43884;DHT22;29544;52.018;5.810;2022-08-19T14:45:34;25.20;64.80
43884;DHT22;29544;52.018;5.810;2022-08-19T14:48:00;25.20;64.70
43884;DHT22;29544;52.018;5.810;2022-08-19T14:50:26;25.10;64.60
43884;DHT22;29544;52.018;5.810;2022-08-19T14:53:02;25.10;64.60
43884;DHT22;29544;52.018;5.810;2022-08-19T14:55:29;25.10;64.80
43884;DHT22;29544;52.018;5.810;2022-08-19T14:57:55;25.10;64.90
43884;DHT22;29544;52.018;5.810;2022-08-19T15:00:21;25.00;64.80
43884;DHT22;29544;52.018;5.810;2022-08-19T15:02:48;25.00;65.10
43884;DHT22;29544;52.018;5.810;2022-08-19T15:05:14;25.00;65.10
43884;DHT22;29544;52.018;5.810;2022-08-19T15:07:40;25.00;65.70
43884;DHT22;29544;52.018;5.810;2022-08-19T15:10:07;25.00;65.90
43884;DHT22;29544;52.018;5.810;2022-08-19T15:12:34;24.90;66.00
43884;DHT22;29544;52.018;5.810;2022-08-19T15:15:00;24.90;66.00
43884;DHT22;29544;52.018;5.810;2022-08-19T15:17:25;24.90;66.50
43884;DHT22;29544;52.018;5.810;2022-08-19T15:19:51;24.90;67.30
43884;DHT22;29544;52.018;5.810;2022-08-19T15:22:17;24.90;67.50
43884;DHT22;29544;52.018;5.810;2022-08-19T15:24:43;24.90;67.70
43884;DHT22;29544;52.018;5.810;2022-08-19T15:27:12;24.90;67.30
43884;DHT22;29544;52.018;5.810;2022-08-19T15:29:38;24.90;67.60
43884;DHT22;29544;52.018;5.810;2022-08-19T15:32:04;24.90;68.00
43884;DHT22;29544;52.018;5.810;2022-08-19T15:34:31;24.90;68.80
43884;DHT22;29544;52.018;5.810;2022-08-19T15:36:57;24.80;68.80
43884;DHT22;29544;52.018;5.810;2022-08-19T15:39:24;24.80;70.00
43884;DHT22;29544;52.018;5.810;2022-08-19T15:41:50;24.80;70.00
43884;DHT22;29544;52.018;5.810;2022-08-19T15:44:17;24.80;69.60
43884;DHT22;29544;52.018;5.810;2022-08-19T15:46:45;24.70;70.10